createdAt,value
2018-12-30T00:03:05.888Z,1.50
2018-12-30T00:05:34.710Z,1.20
2018-12-30T00:08:03.543Z,1.47
2018-12-30T00:10:32.113Z,1.17
2018-12-30T00:13:00.931Z,1.20
2018-12-30T00:15:30.111Z,1.10
2018-12-30T00:17:58.667Z,1.23
2018-12-30T00:20:27.238Z,1.20
2018-12-30T00:22:55.819Z,1.47
2018-12-30T00:25:24.620Z,1.63
2018-12-30T00:27:54.929Z,1.43
2018-12-30T00:30:23.507Z,1.70
2018-12-30T00:32:52.078Z,1.87
2018-12-30T00:35:20.634Z,1.83
2018-12-30T00:37:49.195Z,2.63
2018-12-30T00:40:37.247Z,1.63
2018-12-30T00:43:05.810Z,2.70
2018-12-30T00:45:37.812Z,1.97
2018-12-30T00:50:40.511Z,1.87
2018-12-30T00:53:09.112Z,2.00
2018-12-30T00:55:45.271Z,2.00
2018-12-30T00:58:13.831Z,2.20
2018-12-30T01:00:42.385Z,1.93
2018-12-30T01:03:10.947Z,1.90
2018-12-30T01:05:39.510Z,1.90
2018-12-30T01:10:42.898Z,1.80
2018-12-30T01:13:11.458Z,1.27
2018-12-30T01:15:41.778Z,1.57
2018-12-30T01:18:10.329Z,1.10
2018-12-30T01:20:58.191Z,1.07
2018-12-30T01:23:46.110Z,1.50
2018-12-30T01:26:14.707Z,1.00
2018-12-30T01:28:43.260Z,1.10
2018-12-30T01:31:11.831Z,0.90
2018-12-30T01:33:40.388Z,1.60
2018-12-30T01:36:09.143Z,1.17
2018-12-30T01:38:37.730Z,1.33
2018-12-30T01:41:06.443Z,0.90
2018-12-30T01:43:35.256Z,1.00
2018-12-30T01:46:04.265Z,1.40
2018-12-30T01:51:22.176Z,0.93
2018-12-30T01:53:50.779Z,1.10
2018-12-30T01:56:19.341Z,1.03
2018-12-30T01:58:48.192Z,1.20
2018-12-30T02:01:16.739Z,1.53
2018-12-30T02:03:45.318Z,1.20
2018-12-30T02:06:13.879Z,1.40
2018-12-30T02:08:42.462Z,1.37
2018-12-30T02:11:11.295Z,1.63
2018-12-30T02:13:39.880Z,1.50
2018-12-30T02:16:08.451Z,1.40
2018-12-30T02:18:37.033Z,1.73
2018-12-30T02:21:05.591Z,1.50
2018-12-30T02:23:34.171Z,2.50
2018-12-30T02:26:02.737Z,2.47
2018-12-30T02:28:31.525Z,2.50
2018-12-30T02:33:47.722Z,3.07
2018-12-30T02:36:16.276Z,1.93
2018-12-30T02:38:44.848Z,2.23
2018-12-30T02:41:13.398Z,2.37
2018-12-30T02:43:41.991Z,2.50
2018-12-30T02:46:10.976Z,3.53
2018-12-30T02:48:39.794Z,2.67
2018-12-30T02:51:08.345Z,3.70
2018-12-30T02:53:36.920Z,2.20
2018-12-30T02:58:53.379Z,2.33
2018-12-30T03:01:21.944Z,2.20
2018-12-30T03:03:50.512Z,2.70
2018-12-30T03:06:19.121Z,2.67
2018-12-30T03:08:47.923Z,2.93
2018-12-30T03:11:16.493Z,3.50
2018-12-30T03:13:45.065Z,2.60
2018-12-30T03:16:32.885Z,3.03
2018-12-30T03:19:01.455Z,2.90
2018-12-30T03:21:30.078Z,4.13
2018-12-30T03:23:58.637Z,3.50
2018-12-30T03:26:27.212Z,3.30
2018-12-30T03:28:55.776Z,3.53
2018-12-30T03:36:33.044Z,3.80
2018-12-30T03:39:01.611Z,3.40
2018-12-30T03:41:51.024Z,2.83
2018-12-30T03:44:19.596Z,4.53
2018-12-30T03:46:48.195Z,3.70
2018-12-30T03:49:16.753Z,3.97
2018-12-30T03:51:45.316Z,3.40
2018-12-30T03:54:13.880Z,3.23
2018-12-30T03:56:42.453Z,3.67
2018-12-30T03:59:11.025Z,3.27
2018-12-30T04:01:39.585Z,4.87
2018-12-30T04:04:08.165Z,3.70
2018-12-30T04:06:36.956Z,4.90
2018-12-30T04:09:26.007Z,3.63
2018-12-30T04:11:54.592Z,2.93
2018-12-30T04:14:23.182Z,4.07
2018-12-30T04:16:51.751Z,3.83
2018-12-30T04:19:20.316Z,3.43
2018-12-30T04:21:48.955Z,4.10
2018-12-30T04:24:17.520Z,3.10
2018-12-30T04:26:46.093Z,3.23
2018-12-30T04:29:33.896Z,3.70
2018-12-30T04:32:02.488Z,3.63
2018-12-30T04:34:31.047Z,3.10
2018-12-30T04:36:59.609Z,4.30
2018-12-30T04:39:28.176Z,3.07
2018-12-30T04:41:56.805Z,2.57
2018-12-30T04:44:25.400Z,4.97
2018-12-30T04:46:53.967Z,3.13
2018-12-30T04:49:22.569Z,3.80
2018-12-30T04:51:51.176Z,3.70
2018-12-30T04:54:19.748Z,4.83
2018-12-30T04:56:48.315Z,2.73
2018-12-30T04:59:16.896Z,3.83
2018-12-30T05:01:45.456Z,3.87
2018-12-30T05:04:14.030Z,4.00
2018-12-30T05:06:42.596Z,4.23
2018-12-30T05:09:11.190Z,4.37
2018-12-30T05:11:39.988Z,3.97
2018-12-30T05:14:08.559Z,3.57
2018-12-30T05:16:37.115Z,3.30
2018-12-30T05:19:05.940Z,4.10
2018-12-30T05:21:34.509Z,3.90
2018-12-30T05:24:03.331Z,4.10
2018-12-30T05:26:31.899Z,3.80
2018-12-30T05:29:19.766Z,3.87
2018-12-30T05:31:48.329Z,3.57
2018-12-30T05:34:16.903Z,3.43
2018-12-30T05:36:45.466Z,3.27
2018-12-30T05:39:14.079Z,3.20
2018-12-30T05:41:42.896Z,3.50
2018-12-30T05:44:11.449Z,4.23
2018-12-30T05:46:40.200Z,3.43
2018-12-30T05:49:08.756Z,3.83
2018-12-30T05:51:37.326Z,3.43
2018-12-30T05:54:05.886Z,3.63
2018-12-30T05:56:34.460Z,2.93
2018-12-30T05:59:03.018Z,3.30
2018-12-30T06:01:31.600Z,3.63
2018-12-30T06:04:00.159Z,4.93
2018-12-30T06:06:28.806Z,3.60
2018-12-30T06:08:57.392Z,3.60
2018-12-30T06:11:25.981Z,3.70
2018-12-30T06:13:54.557Z,3.50
2018-12-30T06:16:23.109Z,4.13
2018-12-30T06:18:51.704Z,3.50
2018-12-30T06:24:07.888Z,3.50
2018-12-30T06:26:36.482Z,3.30
2018-12-30T06:29:05.065Z,3.23
2018-12-30T06:31:33.639Z,2.60
2018-12-30T06:34:02.203Z,3.67
2018-12-30T06:36:30.766Z,3.57
2018-12-30T06:38:59.336Z,3.73
2018-12-30T06:41:27.915Z,3.47
2018-12-30T06:43:56.503Z,3.50
2018-12-30T06:46:25.062Z,2.80
2018-12-30T06:48:53.648Z,3.37
2018-12-30T06:51:22.222Z,4.77
2018-12-30T06:53:50.786Z,3.37
2018-12-30T06:56:19.354Z,4.00
2018-12-30T06:58:47.932Z,3.77
2018-12-30T07:01:16.491Z,3.47
2018-12-30T07:03:45.109Z,3.90
2018-12-30T07:06:13.678Z,3.50
2018-12-30T07:08:42.253Z,3.87
2018-12-30T07:11:10.979Z,4.40
2018-12-30T07:13:39.781Z,3.67
2018-12-30T07:16:08.367Z,3.40
2018-12-30T07:18:36.922Z,4.40
2018-12-30T07:21:05.517Z,3.30
2018-12-30T07:23:34.168Z,4.00
2018-12-30T07:26:02.756Z,3.33
2018-12-30T07:28:31.310Z,4.57
2018-12-30T07:31:00.116Z,3.70
2018-12-30T07:33:28.693Z,3.23
2018-12-30T07:35:57.299Z,4.13
2018-12-30T07:38:25.904Z,3.40
2018-12-30T07:40:54.466Z,3.23
2018-12-30T07:43:23.044Z,3.83
2018-12-30T07:45:51.660Z,3.40
2018-12-30T07:48:20.258Z,3.20
2018-12-30T07:50:48.815Z,3.03
2018-12-30T07:53:17.606Z,4.57
2018-12-30T07:55:46.163Z,3.30
2018-12-30T07:58:14.730Z,3.80
2018-12-30T08:00:43.383Z,3.50
2018-12-30T08:03:11.958Z,3.43
2018-12-30T08:05:40.558Z,3.70
2018-12-30T08:08:09.123Z,3.10
2018-12-30T08:10:37.790Z,3.67
2018-12-30T08:13:06.368Z,3.00
2018-12-30T08:15:54.203Z,3.93
2018-12-30T08:18:22.773Z,3.03
2018-12-30T08:20:51.364Z,3.00
2018-12-30T08:23:21.742Z,3.07
2018-12-30T08:25:50.269Z,3.10
2018-12-30T08:28:25.071Z,2.33
2018-12-30T08:30:49.143Z,2.87
2018-12-30T08:33:17.730Z,3.10
2018-12-30T08:35:46.295Z,2.37
2018-12-30T08:38:14.861Z,2.40
2018-12-30T08:40:43.436Z,2.40
2018-12-30T08:43:12.042Z,3.33
2018-12-30T08:45:40.607Z,2.30
2018-12-30T08:48:09.324Z,2.80
2018-12-30T08:50:37.890Z,1.93
2018-12-30T08:53:06.467Z,2.40
2018-12-30T08:55:35.329Z,2.80
2018-12-30T08:58:04.256Z,2.73
2018-12-30T09:00:32.928Z,2.27
2018-12-30T09:03:01.522Z,2.90
2018-12-30T09:05:30.147Z,2.50
2018-12-30T09:07:58.735Z,2.20
2018-12-30T09:10:27.350Z,3.20
2018-12-30T09:12:57.959Z,3.33
2018-12-30T09:15:26.515Z,3.30
2018-12-30T09:17:55.136Z,3.10
2018-12-30T09:20:23.711Z,2.30
2018-12-30T09:22:52.299Z,2.70
2018-12-30T09:25:40.116Z,2.30
2018-12-30T09:28:08.708Z,3.20
2018-12-30T09:30:37.291Z,3.10
2018-12-30T09:33:05.885Z,3.07
2018-12-30T09:35:34.668Z,2.77
2018-12-30T09:38:03.242Z,2.10
2018-12-30T09:40:31.846Z,3.13
2018-12-30T09:43:00.451Z,3.80
2018-12-30T09:45:29.143Z,2.70
2018-12-30T09:47:57.743Z,2.30
2018-12-30T09:50:45.553Z,2.30
2018-12-30T09:53:14.129Z,2.43
2018-12-30T09:55:45.650Z,2.53
2018-12-30T09:58:14.247Z,2.07
2018-12-30T10:00:42.882Z,1.80
2018-12-30T10:03:11.511Z,1.40
2018-12-30T10:05:40.095Z,2.30
2018-12-30T10:08:08.705Z,2.47
2018-12-30T10:10:37.514Z,2.23
2018-12-30T10:13:06.464Z,2.23
2018-12-30T10:15:35.157Z,2.10
2018-12-30T10:18:03.795Z,3.10
2018-12-30T10:20:32.412Z,2.80
2018-12-30T10:23:00.973Z,1.97
2018-12-30T10:25:29.845Z,2.17
2018-12-30T10:27:58.407Z,1.97
2018-12-30T10:30:27.207Z,1.60
2018-12-30T10:32:56.088Z,2.33
2018-12-30T10:35:24.662Z,1.93
2018-12-30T10:37:53.263Z,2.60
2018-12-30T10:40:21.831Z,2.23
2018-12-30T10:42:50.387Z,2.27
2018-12-30T10:45:18.947Z,1.73
2018-12-30T10:47:47.530Z,2.30
2018-12-30T10:50:16.091Z,2.40
2018-12-30T10:52:44.660Z,2.20
2018-12-30T10:55:13.463Z,1.93
2018-12-30T10:57:42.048Z,1.97
2018-12-30T11:02:46.254Z,2.57
2018-12-30T11:05:14.898Z,2.30
2018-12-30T11:07:43.490Z,2.40
2018-12-30T11:10:12.155Z,2.20
2018-12-30T11:12:40.834Z,3.10
2018-12-30T11:15:09.711Z,1.90
2018-12-30T11:17:38.500Z,1.80
2018-12-30T11:20:07.408Z,2.50
2018-12-30T11:22:36.071Z,2.60
2018-12-30T11:25:05.170Z,2.23
2018-12-30T11:27:34.212Z,2.17
2018-12-30T11:30:03.170Z,2.13
2018-12-30T11:32:32.537Z,2.27
2018-12-30T11:35:01.601Z,2.53
2018-12-30T11:37:30.526Z,2.10
2018-12-30T11:39:59.492Z,2.40
2018-12-30T11:42:28.296Z,2.83
2018-12-30T11:44:56.860Z,2.60
2018-12-30T11:47:25.472Z,2.60
2018-12-30T11:49:54.083Z,2.57
2018-12-30T11:52:23.027Z,3.07
2018-12-30T11:54:51.720Z,2.37
2018-12-30T11:57:20.307Z,2.47
2018-12-30T11:59:49.151Z,2.50
2018-12-30T12:04:51.644Z,2.60
2018-12-30T12:07:20.216Z,2.87
2018-12-30T12:09:48.794Z,3.10
2018-12-30T12:12:17.499Z,3.00
2018-12-30T12:14:46.312Z,3.70
2018-12-30T12:17:14.967Z,4.50
2018-12-30T12:19:43.593Z,5.50
2018-12-30T12:22:12.186Z,4.70
2018-12-30T12:24:41.033Z,4.43
2018-12-30T12:27:09.676Z,5.17
2018-12-30T12:29:38.289Z,5.23
2018-12-30T12:32:07.856Z,7.60
2018-12-30T12:34:36.497Z,5.57
2018-12-30T12:37:05.066Z,5.63
2018-12-30T12:39:33.642Z,5.07
2018-12-30T12:42:02.208Z,5.40
2018-12-30T12:44:30.791Z,5.53
2018-12-30T12:46:59.382Z,6.93
2018-12-30T12:49:28.054Z,6.23
2018-12-30T12:54:44.363Z,6.40
2018-12-30T12:57:13.608Z,6.77
2018-12-30T12:59:42.834Z,6.90
2018-12-30T13:02:12.130Z,6.80
2018-12-30T13:04:41.452Z,6.20
2018-12-30T13:07:10.617Z,6.33
2018-12-30T13:09:41.069Z,7.10
2018-12-30T13:12:10.355Z,7.03
2018-12-30T13:14:39.421Z,7.30
2018-12-30T13:17:08.700Z,5.70
2018-12-30T13:19:37.866Z,7.43
2018-12-30T13:22:06.460Z,7.80
2018-12-30T13:24:39.969Z,6.97
2018-12-30T13:29:39.892Z,7.53
2018-12-30T13:32:08.517Z,8.50
2018-12-30T13:34:37.114Z,8.40
2018-12-30T13:37:25.146Z,8.43
2018-12-30T13:39:53.762Z,10.57
2018-12-30T13:42:22.443Z,8.43
2018-12-30T13:44:51.026Z,9.07
2018-12-30T13:47:19.607Z,9.10
2018-12-30T13:49:48.208Z,8.90
2018-12-30T13:55:04.936Z,9.43
2018-12-30T13:57:33.570Z,10.10
2018-12-30T14:02:36.967Z,9.23
2018-12-30T14:05:05.989Z,8.00
2018-12-30T14:07:34.552Z,7.80
2018-12-30T14:10:03.146Z,7.40
2018-12-30T14:12:31.736Z,6.33
2018-12-30T14:15:00.354Z,7.10
2018-12-30T14:17:28.907Z,7.00
2018-12-30T14:19:57.522Z,7.57
2018-12-30T14:22:26.092Z,8.40
2018-12-30T14:24:55.478Z,7.63
2018-12-30T14:27:24.289Z,8.40
2018-12-30T14:29:53.063Z,7.83
2018-12-30T14:32:21.871Z,9.43
2018-12-30T14:34:51.432Z,8.47
2018-12-30T14:37:19.990Z,8.27
2018-12-30T14:39:49.562Z,8.40
2018-12-30T14:42:18.148Z,7.20
2018-12-30T14:44:46.745Z,7.27
2018-12-30T14:47:15.337Z,8.73
2018-12-30T14:49:43.936Z,9.57
2018-12-30T14:52:13.238Z,10.20
2018-12-30T14:54:41.932Z,9.70
2018-12-30T14:57:10.523Z,9.63
2018-12-30T14:59:39.090Z,12.43
2018-12-30T15:02:07.675Z,10.10
2018-12-30T15:04:36.277Z,10.40
2018-12-30T15:07:04.971Z,11.27
2018-12-30T15:09:35.809Z,10.37
2018-12-30T15:12:03.872Z,10.97
2018-12-30T15:14:32.475Z,12.57
2018-12-30T15:17:01.039Z,12.07
2018-12-30T15:19:29.720Z,12.20
2018-12-30T15:21:58.316Z,14.00
2018-12-30T15:24:27.158Z,14.63
2018-12-30T15:26:55.750Z,13.00
2018-12-30T15:29:24.571Z,14.73
2018-12-30T15:31:53.406Z,13.00
2018-12-30T15:34:22.005Z,13.73
2018-12-30T15:36:50.684Z,14.30
2018-12-30T15:39:19.199Z,13.83
2018-12-30T15:41:47.792Z,12.73
2018-12-30T15:44:16.381Z,12.57
2018-12-30T15:46:45.085Z,13.30
2018-12-30T15:49:13.664Z,11.10
2018-12-30T15:51:42.277Z,11.93
2018-12-30T15:54:11.851Z,12.13
2018-12-30T15:56:40.445Z,12.03
2018-12-30T15:59:09.022Z,12.60
2018-12-30T16:01:37.605Z,10.83
2018-12-30T16:04:06.194Z,10.27
2018-12-30T16:06:34.778Z,13.10
2018-12-30T16:09:04.833Z,13.13
2018-12-30T16:11:33.668Z,13.70
2018-12-30T16:14:02.249Z,12.13
2018-12-30T16:16:30.870Z,10.70
2018-12-30T16:18:59.455Z,10.63
2018-12-30T16:21:28.058Z,11.77
2018-12-30T16:23:56.680Z,11.50
2018-12-30T16:26:25.347Z,11.73
2018-12-30T16:28:53.919Z,11.20
2018-12-30T16:31:27.991Z,11.93
2018-12-30T16:33:52.850Z,10.63
2018-12-30T16:36:21.446Z,10.20
2018-12-30T16:38:50.027Z,9.60
2018-12-30T16:41:18.605Z,9.20
2018-12-30T16:43:47.264Z,9.70
2018-12-30T16:46:15.861Z,9.00
2018-12-30T16:48:44.465Z,9.07
2018-12-30T16:51:13.040Z,9.50
2018-12-30T16:53:41.611Z,7.10
2018-12-30T16:56:10.420Z,7.87
2018-12-30T16:58:39.299Z,6.23
2018-12-30T17:01:07.882Z,6.17
2018-12-30T17:03:36.484Z,6.60
2018-12-30T17:06:05.082Z,5.50
2018-12-30T17:08:33.665Z,5.10
2018-12-30T17:11:02.256Z,6.80
2018-12-30T17:13:30.927Z,5.20
2018-12-30T17:15:59.501Z,5.30
2018-12-30T17:18:28.089Z,4.80
2018-12-30T17:20:56.689Z,6.93
2018-12-30T17:23:25.408Z,7.20
2018-12-30T17:25:54.011Z,5.80
2018-12-30T17:28:22.608Z,6.53
2018-12-30T17:30:51.203Z,6.93
2018-12-30T17:33:19.784Z,7.90
2018-12-30T17:35:48.350Z,7.47
2018-12-30T17:38:17.181Z,7.10
2018-12-30T17:40:45.752Z,6.90
2018-12-30T17:43:14.313Z,7.20
2018-12-30T17:45:42.938Z,7.33
2018-12-30T17:48:11.526Z,8.50
2018-12-30T17:50:40.093Z,6.93
2018-12-30T17:53:08.737Z,6.83
2018-12-30T17:55:37.341Z,6.97
2018-12-30T17:58:05.905Z,6.63
2018-12-30T18:00:34.506Z,6.90
2018-12-30T18:03:03.095Z,6.23
2018-12-30T18:05:31.699Z,6.23
2018-12-30T18:08:00.275Z,5.67
2018-12-30T18:10:29.146Z,6.00
2018-12-30T18:12:58.193Z,5.60
2018-12-30T18:15:26.974Z,7.00
2018-12-30T18:17:55.705Z,6.00
2018-12-30T18:20:24.269Z,5.40
2018-12-30T18:22:52.837Z,4.73
2018-12-30T18:25:21.435Z,6.30
2018-12-30T18:27:50.099Z,6.30
2018-12-30T18:30:18.660Z,5.70
2018-12-30T18:32:47.260Z,5.00
2018-12-30T18:35:15.850Z,5.37
2018-12-30T18:37:44.643Z,6.50
2018-12-30T18:40:13.234Z,6.07
2018-12-30T18:42:41.898Z,5.37
2018-12-30T18:45:10.459Z,5.67
2018-12-30T18:47:39.055Z,4.80
2018-12-30T18:50:08.476Z,4.47
2018-12-30T18:52:37.273Z,5.13
2018-12-30T18:55:06.429Z,5.07
2018-12-30T18:57:34.985Z,6.67
2018-12-30T19:00:03.582Z,14.63
2018-12-30T19:02:32.144Z,6.47
2018-12-30T19:05:00.704Z,8.50
2018-12-30T19:07:29.367Z,5.67
2018-12-30T19:09:57.933Z,5.90
2018-12-30T19:12:26.527Z,4.90
2018-12-30T19:14:55.103Z,4.30
2018-12-30T19:17:23.907Z,3.60
2018-12-30T19:19:52.489Z,4.60
2018-12-30T19:22:21.063Z,4.97
2018-12-30T19:24:49.649Z,3.40
2018-12-30T19:27:18.232Z,4.07
2018-12-30T19:29:46.799Z,9.93
2018-12-30T19:32:15.368Z,5.30
2018-12-30T19:34:43.953Z,5.40
2018-12-30T19:37:12.545Z,3.53
2018-12-30T19:39:41.124Z,3.00
2018-12-30T19:42:09.890Z,2.10
2018-12-30T19:44:38.710Z,3.00
2018-12-30T19:47:07.511Z,2.63
2018-12-30T19:49:36.109Z,2.50
2018-12-30T19:52:04.682Z,2.07
2018-12-30T19:54:33.523Z,1.70
2018-12-30T19:57:02.082Z,1.50
2018-12-30T19:59:30.776Z,2.00
2018-12-30T20:01:59.332Z,1.80
2018-12-30T20:04:27.931Z,2.17
2018-12-30T20:06:56.495Z,2.10
2018-12-30T20:09:25.746Z,2.47
2018-12-30T20:11:54.567Z,7.73
2018-12-30T20:14:23.124Z,2.60
2018-12-30T20:16:51.688Z,1.90
2018-12-30T20:19:20.261Z,3.10
2018-12-30T20:21:48.848Z,2.00
2018-12-30T20:24:17.416Z,1.77
2018-12-30T20:26:45.985Z,2.20
2018-12-30T20:29:14.545Z,1.93
2018-12-30T20:31:43.136Z,1.90
2018-12-30T20:34:11.702Z,1.67
2018-12-30T20:36:39.329Z,1.80
2018-12-30T20:39:08.316Z,1.37
2018-12-30T20:41:36.885Z,1.50
2018-12-30T20:44:05.455Z,1.40
2018-12-30T20:46:34.022Z,1.13
2018-12-30T20:49:02.832Z,1.23
2018-12-30T20:51:31.394Z,1.30
2018-12-30T20:53:59.997Z,1.50
2018-12-30T20:56:28.641Z,1.30
2018-12-30T20:58:57.208Z,1.00
2018-12-30T21:01:25.809Z,1.20
2018-12-30T21:03:54.382Z,1.00
2018-12-30T21:06:22.971Z,3.80
2018-12-30T21:08:51.539Z,2.50
2018-12-30T21:11:20.106Z,7.23
2018-12-30T21:13:48.700Z,1.07
2018-12-30T21:16:17.289Z,1.20
2018-12-30T21:18:45.873Z,1.00
2018-12-30T21:21:14.455Z,1.10
2018-12-30T21:23:43.046Z,1.00
2018-12-30T21:26:11.617Z,1.20
2018-12-30T21:28:40.186Z,0.83
2018-12-30T21:31:08.795Z,1.13
2018-12-30T21:33:37.379Z,1.40
2018-12-30T21:36:05.951Z,0.73
2018-12-30T21:38:34.523Z,1.17
2018-12-30T21:41:03.081Z,1.20
2018-12-30T21:43:31.643Z,1.00
2018-12-30T21:46:00.217Z,1.00
2018-12-30T21:48:28.819Z,1.40
2018-12-30T21:50:57.414Z,1.10
2018-12-30T21:53:25.975Z,1.07
2018-12-30T21:55:54.552Z,1.67
2018-12-30T21:58:23.171Z,1.30
2018-12-30T22:00:51.732Z,1.30
2018-12-30T22:03:20.351Z,1.20
2018-12-30T22:05:48.914Z,1.07
2018-12-30T22:08:17.481Z,1.90
2018-12-30T22:10:46.265Z,1.40
2018-12-30T22:13:14.839Z,1.63
2018-12-30T22:15:43.396Z,1.83
2018-12-30T22:18:11.979Z,2.10
2018-12-30T22:20:40.558Z,1.73
2018-12-30T22:23:09.153Z,2.23
2018-12-30T22:25:37.727Z,2.30
2018-12-30T22:28:06.316Z,2.40
2018-12-30T22:30:34.900Z,1.83
2018-12-30T22:33:03.497Z,2.17
2018-12-30T22:35:33.065Z,1.97
2018-12-30T22:38:01.643Z,2.20
2018-12-30T22:40:30.256Z,1.93
2018-12-30T22:42:59.086Z,2.20
2018-12-30T22:45:27.717Z,1.73
2018-12-30T22:47:56.284Z,1.80
2018-12-30T22:50:25.089Z,1.90
2018-12-30T22:52:53.916Z,1.77
2018-12-30T22:55:22.510Z,1.70
2018-12-30T22:57:51.332Z,2.00
2018-12-30T23:00:37.958Z,1.97
2018-12-30T23:03:06.551Z,2.00
2018-12-30T23:05:35.110Z,1.50
2018-12-30T23:08:03.703Z,1.63
2018-12-30T23:10:32.269Z,1.93
2018-12-30T23:13:01.092Z,1.90
2018-12-30T23:15:29.709Z,1.97
2018-12-30T23:17:58.290Z,1.70
2018-12-30T23:20:26.970Z,1.90
2018-12-30T23:22:55.539Z,1.63
2018-12-30T23:25:24.105Z,1.70
2018-12-30T23:27:52.667Z,1.77
2018-12-30T23:30:21.239Z,2.80
2018-12-30T23:32:49.798Z,2.70
2018-12-30T23:35:18.382Z,1.80
2018-12-30T23:37:46.935Z,1.80
2018-12-30T23:40:15.527Z,3.60
2018-12-30T23:42:44.094Z,2.00
2018-12-30T23:45:12.703Z,10.60
2018-12-30T23:47:41.299Z,2.73
2018-12-30T23:50:09.884Z,6.20
2018-12-30T23:52:38.475Z,2.20
2018-12-30T23:55:07.051Z,1.53
2018-12-30T23:57:35.692Z,2.70
